| Date | Time | Temp. (oF) | Dew Point (oF) | Rel. Hum. (%) | Press. (in.) | Wind Dir. | Wind Speed (mph) | Hourly Rainfall (in.) |
|
|---|---|---|---|---|---|---|---|---|---|
| 1 | 06/06 | 00:00 | 69 | 59 | 73 | 30.01 | W | 2 | 0.00 |
| 2 | 06/05 | 23:00 | 71 | 61 | 71 | 30.02 | SW | 1 | 0.00 |
| 3 | 06/05 | 22:00 | 71 | 59 | 68 | 30.02 | W | 0 | 0.00 |
| 4 | 06/05 | 21:00 | 75 | 59 | 59 | 30.00 | W | 0 | 0.00 |
| 5 | 06/05 | 20:00 | 78 | 56 | 48 | 29.98 | W | 1 | 0.00 |
| 6 | 06/05 | 19:00 | 79 | 55 | 44 | 29.97 | NW | 4 | 0.00 |
| 7 | 06/05 | 18:00 | 80 | 55 | 44 | 29.98 | NW | 3 | 0.00 |
| 8 | 06/05 | 17:00 | 80 | 55 | 44 | 29.99 | NW | 3 | 0.00 |
| 9 | 06/05 | 16:00 | 79 | 54 | 43 | 30.01 | NNE | 3 | 0.00 |
| 10 | 06/05 | 15:00 | 79 | 56 | 47 | 30.03 | SSW | 3 | 0.00 |
| 11 | 06/05 | 14:00 | 77 | 54 | 46 | 30.03 | W | 8 | 0.00 |
| 12 | 06/05 | 13:00 | 75 | 56 | 53 | 30.05 | NNW | 6 | 0.00 |
| 13 | 06/05 | 12:00 | 73 | 56 | 56 | 30.06 | NNW | 4 | 0.00 |
| 14 | 06/05 | 11:00 | 71 | 55 | 58 | 30.07 | NNW | 5 | 0.00 |
| 15 | 06/05 | 10:00 | 69 | 54 | 61 | 30.07 | NNW | 4 | 0.00 |
| 16 | 06/05 | 09:00 | 68 | 56 | 66 | 30.08 | N | 5 | 0.00 |
| 17 | 06/05 | 08:00 | 66 | 56 | 72 | 30.06 | NE | 8 | 0.00 |
| 18 | 06/05 | 07:00 | 63 | 58 | 86 | 30.05 | W | 1 | 0.00 |
| 19 | 06/05 | 06:00 | 63 | 59 | 88 | 30.03 | SW | 0 | 0.00 |
| 20 | 06/05 | 05:00 | 63 | 59 | 87 | 30.02 | SW | 1 | 0.00 |
| 21 | 06/05 | 04:00 | 63 | 58 | 86 | 30.00 | SSW | 0 | 0.00 |
| 22 | 06/05 | 03:00 | 65 | 59 | 81 | 30.00 | SSW | 0 | 0.00 |
| 23 | 06/05 | 02:00 | 66 | 57 | 73 | 30.01 | SSW | 1 | 0.00 |
| 24 | 06/05 | 01:00 | 66 | 58 | 77 | 30.02 | S | 2 | 0.00 |